createdAt,value
2017-04-03T00:00:12.304Z,927.55
2017-04-03T00:00:32.369Z,927.5
2017-04-03T00:00:51.808Z,927.51
2017-04-03T00:01:11.277Z,927.48
2017-04-03T00:01:31.299Z,927.47
2017-04-03T00:01:51.318Z,927.49
2017-04-03T00:02:11.362Z,927.53
2017-04-03T00:02:31.400Z,927.51
2017-04-03T00:02:50.301Z,927.55
2017-04-03T00:03:10.322Z,927.52
2017-04-03T00:03:30.325Z,927.49
2017-04-03T00:03:50.352Z,927.52
2017-04-03T00:04:09.243Z,927.54
2017-04-03T00:04:28.701Z,927.53
2017-04-03T00:04:48.141Z,927.53
2017-04-03T00:05:08.165Z,927.54
2017-04-03T00:05:27.619Z,927.55
2017-04-03T00:05:47.616Z,927.54
2017-04-03T00:06:07.632Z,927.57
2017-04-03T00:06:27.673Z,927.57
2017-04-03T00:06:47.688Z,927.54
2017-04-03T00:07:07.152Z,927.54
2017-04-03T00:07:27.186Z,927.54
2017-04-03T00:07:47.245Z,927.57
2017-04-03T00:08:07.265Z,927.56
2017-04-03T00:08:26.743Z,927.62
2017-04-03T00:08:46.763Z,927.55
2017-04-03T00:09:06.756Z,927.6
2017-04-03T00:09:26.772Z,927.56
2017-04-03T00:09:46.819Z,927.62
2017-04-03T00:10:06.837Z,927.57
2017-04-03T00:10:26.848Z,927.6
2017-04-03T00:10:46.881Z,927.57
2017-04-03T00:11:06.893Z,927.59
2017-04-03T00:11:26.884Z,927.59
2017-04-03T00:11:46.928Z,927.56
2017-04-03T00:12:06.392Z,927.55
2017-04-03T00:12:26.421Z,927.56
2017-04-03T00:12:46.464Z,927.57
2017-04-03T00:13:06.499Z,927.56
2017-04-03T00:13:26.509Z,927.63
2017-04-03T00:13:46.547Z,927.61
2017-04-03T00:14:06.013Z,927.62
2017-04-03T00:14:25.498Z,927.6
2017-04-03T00:14:44.963Z,927.58
2017-04-03T00:15:04.411Z,927.61
2017-04-03T00:15:24.419Z,927.59
2017-04-03T00:15:44.440Z,927.55
2017-04-03T00:16:04.631Z,927.58
2017-04-03T00:16:24.686Z,927.57
2017-04-03T00:16:44.136Z,927.44
2017-04-03T00:17:04.156Z,927.56
2017-04-03T00:17:23.590Z,927.57
2017-04-03T00:17:43.625Z,927.55
2017-04-03T00:18:03.646Z,927.55
2017-04-03T00:18:23.675Z,927.5
2017-04-03T00:18:43.723Z,927.5
2017-04-03T00:19:03.755Z,927.48
2017-04-03T00:19:23.764Z,927.5
2017-04-03T00:19:43.755Z,927.51
2017-04-03T00:20:03.814Z,927.53
2017-04-03T00:20:23.827Z,927.51
2017-04-03T00:20:43.834Z,927.53
2017-04-03T00:21:04.099Z,927.55
2017-04-03T00:21:24.133Z,927.54
2017-04-03T00:21:43.589Z,927.52
2017-04-03T00:22:03.029Z,927.55
2017-04-03T00:22:21.924Z,927.59
2017-04-03T00:22:41.947Z,927.57
2017-04-03T00:23:01.963Z,927.59
2017-04-03T00:23:21.986Z,927.48
2017-04-03T00:23:42.004Z,927.57
2017-04-03T00:24:01.459Z,927.54
2017-04-03T00:24:21.484Z,927.56
2017-04-03T00:24:41.490Z,927.53
2017-04-03T00:25:00.379Z,927.52
2017-04-03T00:25:19.834Z,927.63
2017-04-03T00:25:39.846Z,927.61
2017-04-03T00:26:00.159Z,927.61
2017-04-03T00:26:20.192Z,927.62
2017-04-03T00:26:40.267Z,927.61
2017-04-03T00:27:00.344Z,927.64
2017-04-03T00:27:19.249Z,927.64
2017-04-03T00:27:39.253Z,927.66
2017-04-03T00:27:59.300Z,927.65
2017-04-03T00:28:19.345Z,927.65
2017-04-03T00:28:38.835Z,927.67
2017-04-03T00:28:58.865Z,927.69
2017-04-03T00:29:18.890Z,927.62
2017-04-03T00:29:38.339Z,927.62
2017-04-03T00:29:58.378Z,927.66
2017-04-03T00:30:18.404Z,927.66
2017-04-03T00:30:38.410Z,927.64
2017-04-03T00:30:58.424Z,927.68
2017-04-03T00:31:18.454Z,927.74
2017-04-03T00:31:37.900Z,927.68
2017-04-03T00:31:57.359Z,927.62
2017-04-03T00:32:17.381Z,927.69
2017-04-03T00:32:37.418Z,927.68
2017-04-03T00:32:57.430Z,927.7
2017-04-03T00:33:16.888Z,927.66
2017-04-03T00:33:36.368Z,927.67
2017-04-03T00:33:56.409Z,927.71
2017-04-03T00:34:16.435Z,927.69
2017-04-03T00:34:35.908Z,927.7
2017-04-03T00:34:55.960Z,927.72
2017-04-03T00:35:15.988Z,927.68
2017-04-03T00:35:35.966Z,927.72
2017-04-03T00:35:55.991Z,927.65
2017-04-03T00:36:16.009Z,927.66
2017-04-03T00:36:34.890Z,927.69
2017-04-03T00:36:54.931Z,927.71
2017-04-03T00:37:14.401Z,927.71
2017-04-03T00:37:34.401Z,927.72
2017-04-03T00:37:54.388Z,927.71
2017-04-03T00:38:14.407Z,927.65
2017-04-03T00:38:33.864Z,927.7
2017-04-03T00:38:53.350Z,927.69
2017-04-03T00:39:13.401Z,927.73
2017-04-03T00:39:33.421Z,927.75
2017-04-03T00:39:52.883Z,927.73
2017-04-03T00:40:12.905Z,927.71
2017-04-03T00:40:32.976Z,927.73
2017-04-03T00:40:52.981Z,927.69
2017-04-03T00:41:13.140Z,927.69
2017-04-03T00:41:32.615Z,927.72
2017-04-03T00:41:52.109Z,927.71
2017-04-03T00:42:12.097Z,927.68
2017-04-03T00:42:32.073Z,927.72
2017-04-03T00:42:52.119Z,927.73
2017-04-03T00:43:12.118Z,927.75
2017-04-03T00:43:31.581Z,927.72
2017-04-03T00:43:51.682Z,927.75
2017-04-03T00:44:11.735Z,927.77
2017-04-03T00:44:31.764Z,927.75
2017-04-03T00:44:51.770Z,927.68
2017-04-03T00:45:10.672Z,927.74
2017-04-03T00:45:30.687Z,927.71
2017-04-03T00:45:50.698Z,927.73
2017-04-03T00:46:10.740Z,927.78
2017-04-03T00:46:30.244Z,927.75
2017-04-03T00:46:49.159Z,927.74
2017-04-03T00:47:09.189Z,927.72
2017-04-03T00:47:29.230Z,927.75
2017-04-03T00:47:48.718Z,927.72
2017-04-03T00:48:08.726Z,927.72
2017-04-03T00:48:28.156Z,927.73
2017-04-03T00:48:48.173Z,927.73
2017-04-03T00:49:08.191Z,927.69
2017-04-03T00:49:28.263Z,927.74
2017-04-03T00:49:48.259Z,927.72
2017-04-03T00:50:08.301Z,927.68
2017-04-03T00:50:27.767Z,927.74
2017-04-03T00:50:47.772Z,927.66
2017-04-03T00:51:07.255Z,927.74
2017-04-03T00:51:26.707Z,927.73
2017-04-03T00:51:46.144Z,927.68
2017-04-03T00:52:06.233Z,927.68
2017-04-03T00:52:25.679Z,927.68
2017-04-03T00:52:45.683Z,927.71
2017-04-03T00:53:05.166Z,927.71
2017-04-03T00:53:24.619Z,927.69
2017-04-03T00:53:44.083Z,927.7
2017-04-03T00:54:04.100Z,927.73
2017-04-03T00:54:24.099Z,927.74
2017-04-03T00:54:43.546Z,927.71
2017-04-03T00:55:02.451Z,927.69
2017-04-03T00:55:21.906Z,927.71
2017-04-03T00:55:41.950Z,927.72
2017-04-03T00:56:01.951Z,927.69
2017-04-03T00:56:21.931Z,927.7
2017-04-03T00:56:40.870Z,927.71
2017-04-03T00:57:00.952Z,927.72
2017-04-03T00:57:20.623Z,927.68
2017-04-03T00:57:40.662Z,927.71
2017-04-03T00:58:00.663Z,927.71
2017-04-03T00:58:20.690Z,927.75
2017-04-03T00:58:40.719Z,927.7
2017-04-03T00:59:00.199Z,927.71
2017-04-03T00:59:20.201Z,927.69
2017-04-03T00:59:40.217Z,927.71
2017-04-03T01:00:00.242Z,927.74
2017-04-03T01:00:20.282Z,927.7
2017-04-03T01:00:39.797Z,927.68
2017-04-03T01:00:59.973Z,927.74
2017-04-03T01:01:19.991Z,927.71
2017-04-03T01:01:40.030Z,927.75
2017-04-03T01:02:00.088Z,927.67
2017-04-03T01:02:20.101Z,927.75
2017-04-03T01:02:40.116Z,927.69
2017-04-03T01:03:00.204Z,927.72
2017-04-03T01:03:20.241Z,927.71
2017-04-03T01:03:39.689Z,927.7
2017-04-03T01:03:59.722Z,927.73
2017-04-03T01:04:19.746Z,927.69
2017-04-03T01:04:39.758Z,927.7
2017-04-03T01:04:59.195Z,927.75
2017-04-03T01:05:19.206Z,927.68
2017-04-03T01:05:39.223Z,927.72
2017-04-03T01:05:58.095Z,927.69
2017-04-03T01:06:17.538Z,927.7
2017-04-03T01:06:37.568Z,927.65
2017-04-03T01:06:57.023Z,927.64
2017-04-03T01:07:17.063Z,927.68
2017-04-03T01:07:37.067Z,927.66
2017-04-03T01:07:57.087Z,927.65
2017-04-03T01:08:16.540Z,927.69
2017-04-03T01:08:36.019Z,927.67
2017-04-03T01:08:56.034Z,927.66
2017-04-03T01:09:15.513Z,927.67
2017-04-03T01:09:34.967Z,927.69
2017-04-03T01:09:54.959Z,927.71
2017-04-03T01:10:14.999Z,927.65
2017-04-03T01:10:35.006Z,927.68
2017-04-03T01:10:55.080Z,927.66
2017-04-03T01:11:15.124Z,927.66
2017-04-03T01:11:35.169Z,927.7
2017-04-03T01:11:54.057Z,927.68
2017-04-03T01:12:13.517Z,927.67
2017-04-03T01:12:33.524Z,927.66
2017-04-03T01:12:52.446Z,927.69
2017-04-03T01:13:12.455Z,927.68
2017-04-03T01:13:32.506Z,927.68
2017-04-03T01:13:52.529Z,927.61
2017-04-03T01:14:12.543Z,927.66
2017-04-03T01:14:32.557Z,927.7
2017-04-03T01:14:52.598Z,927.66
2017-04-03T01:15:12.640Z,927.66
2017-04-03T01:15:32.096Z,927.68
2017-04-03T01:15:52.117Z,927.64
2017-04-03T01:16:12.244Z,927.67
2017-04-03T01:16:31.691Z,927.65
2017-04-03T01:16:51.151Z,927.68
2017-04-03T01:17:10.606Z,927.7
2017-04-03T01:17:30.615Z,927.68
2017-04-03T01:17:50.059Z,927.67
2017-04-03T01:18:09.544Z,927.65
2017-04-03T01:18:29.557Z,927.69
2017-04-03T01:18:49.573Z,927.66
2017-04-03T01:19:09.613Z,927.68
2017-04-03T01:19:29.649Z,927.7
2017-04-03T01:19:49.681Z,927.61
2017-04-03T01:20:09.705Z,927.63
2017-04-03T01:20:29.744Z,927.66
2017-04-03T01:20:49.209Z,927.69
2017-04-03T01:21:09.395Z,927.63
2017-04-03T01:21:29.441Z,927.67
2017-04-03T01:21:49.463Z,927.64
2017-04-03T01:22:09.504Z,927.63
2017-04-03T01:22:28.986Z,927.6
2017-04-03T01:22:48.463Z,927.59
2017-04-03T01:23:07.928Z,927.64
2017-04-03T01:23:27.956Z,927.64
2017-04-03T01:23:47.399Z,927.65
2017-04-03T01:24:07.497Z,927.6
2017-04-03T01:24:26.386Z,927.61
2017-04-03T01:24:45.812Z,927.57
2017-04-03T01:25:05.293Z,927.67
2017-04-03T01:25:25.333Z,927.61
2017-04-03T01:25:45.352Z,927.65
2017-04-03T01:26:05.397Z,927.61
2017-04-03T01:26:24.836Z,927.58
2017-04-03T01:26:44.865Z,927.62
2017-04-03T01:27:04.879Z,927.63
2017-04-03T01:27:24.307Z,927.67
2017-04-03T01:27:44.324Z,927.62
2017-04-03T01:28:03.777Z,927.58
2017-04-03T01:28:23.220Z,927.58
2017-04-03T01:28:42.699Z,927.61
2017-04-03T01:29:02.723Z,927.61
2017-04-03T01:29:22.748Z,927.59
2017-04-03T01:29:42.744Z,927.56
2017-04-03T01:30:02.761Z,927.56
2017-04-03T01:30:22.752Z,927.62
2017-04-03T01:30:42.773Z,927.58
2017-04-03T01:31:03.055Z,927.57
2017-04-03T01:31:23.063Z,927.56
2017-04-03T01:31:43.096Z,927.55
2017-04-03T01:32:03.107Z,927.49
2017-04-03T01:32:22.549Z,927.53
2017-04-03T01:32:42.552Z,927.53
2017-04-03T01:33:02.583Z,927.53
2017-04-03T01:33:22.619Z,927.51
2017-04-03T01:33:42.658Z,927.5
2017-04-03T01:34:02.681Z,927.52
2017-04-03T01:34:22.694Z,927.53
2017-04-03T01:34:42.713Z,927.49
2017-04-03T01:35:02.732Z,927.54
2017-04-03T01:35:22.202Z,927.53
2017-04-03T01:35:42.235Z,927.49
2017-04-03T01:36:02.238Z,927.51
2017-04-03T01:36:22.282Z,927.5
2017-04-03T01:36:42.314Z,927.49
2017-04-03T01:37:01.778Z,927.49
2017-04-03T01:37:21.771Z,927.52
2017-04-03T01:37:41.223Z,927.52
2017-04-03T01:38:00.654Z,927.49
2017-04-03T01:38:20.642Z,927.48
2017-04-03T01:38:40.673Z,927.47
2017-04-03T01:39:00.711Z,927.52
2017-04-03T01:39:20.744Z,927.49
2017-04-03T01:39:40.746Z,927.47
2017-04-03T01:40:00.188Z,927.48
2017-04-03T01:40:20.224Z,927.5
2017-04-03T01:40:40.269Z,927.5
2017-04-03T01:41:00.327Z,927.51
2017-04-03T01:41:20.373Z,927.48
2017-04-03T01:41:40.358Z,927.49
2017-04-03T01:42:00.363Z,927.42
2017-04-03T01:42:20.391Z,927.47
2017-04-03T01:42:39.313Z,927.48
2017-04-03T01:42:59.376Z,927.49
2017-04-03T01:43:19.393Z,927.46
2017-04-03T01:43:38.299Z,927.52
2017-04-03T01:43:58.316Z,927.44
2017-04-03T01:44:18.353Z,927.45
2017-04-03T01:44:38.359Z,927.45
2017-04-03T01:44:58.384Z,927.47
2017-04-03T01:45:18.425Z,927.44
2017-04-03T01:45:37.864Z,927.47
2017-04-03T01:45:57.872Z,927.47
2017-04-03T01:46:17.310Z,927.46
2017-04-03T01:46:37.306Z,927.45
2017-04-03T01:46:57.342Z,927.46
2017-04-03T01:47:17.378Z,927.49
2017-04-03T01:47:37.414Z,927.46
2017-04-03T01:47:57.471Z,927.48
2017-04-03T01:48:16.891Z,927.5
2017-04-03T01:48:36.937Z,927.51
2017-04-03T01:48:56.954Z,927.48
2017-04-03T01:49:16.988Z,927.46
2017-04-03T01:49:36.436Z,927.45
2017-04-03T01:49:54.790Z,927.46
2017-04-03T01:50:14.240Z,927.46
2017-04-03T01:50:33.678Z,927.46
2017-04-03T01:50:53.982Z,927.47
2017-04-03T01:51:14.025Z,927.42
2017-04-03T01:51:33.466Z,927.46
2017-04-03T01:51:53.546Z,927.41
2017-04-03T01:52:13.003Z,927.42
2017-04-03T01:52:33.037Z,927.43
2017-04-03T01:52:52.518Z,927.41
2017-04-03T01:53:12.558Z,927.4
2017-04-03T01:53:32.029Z,927.42
2017-04-03T01:53:50.957Z,927.45
2017-04-03T01:54:10.992Z,927.43
2017-04-03T01:54:29.894Z,927.49
2017-04-03T01:54:49.938Z,927.45
2017-04-03T01:55:09.959Z,927.45
2017-04-03T01:55:29.396Z,927.47
2017-04-03T01:55:49.426Z,927.44
2017-04-03T01:56:09.436Z,927.47
2017-04-03T01:56:29.430Z,927.47
2017-04-03T01:56:49.439Z,927.47
2017-04-03T01:57:09.489Z,927.45
2017-04-03T01:57:29.515Z,927.44
2017-04-03T01:57:49.502Z,927.46
2017-04-03T01:58:08.965Z,927.45
2017-04-03T01:58:28.406Z,927.45
2017-04-03T01:58:48.447Z,927.49
2017-04-03T01:59:07.908Z,927.46
2017-04-03T01:59:27.956Z,927.5
2017-04-03T01:59:47.978Z,927.47
2017-04-03T02:00:07.441Z,927.44
2017-04-03T02:00:27.463Z,927.44
2017-04-03T02:00:46.909Z,927.46
2017-04-03T02:01:06.996Z,927.52
2017-04-03T02:01:27.020Z,927.5
2017-04-03T02:01:46.456Z,927.5
2017-04-03T02:02:06.478Z,927.5
2017-04-03T02:02:26.481Z,927.5
2017-04-03T02:02:46.523Z,927.51
2017-04-03T02:03:06.516Z,927.49
2017-04-03T02:03:26.523Z,927.51
2017-04-03T02:03:46.006Z,927.56
2017-04-03T02:04:06.030Z,927.55
2017-04-03T02:04:25.538Z,927.52
2017-04-03T02:04:44.457Z,927.52
2017-04-03T02:05:04.489Z,927.53
2017-04-03T02:05:23.972Z,927.54
2017-04-03T02:05:44.013Z,927.53
2017-04-03T02:06:04.669Z,927.54
2017-04-03T02:06:24.708Z,927.57
2017-04-03T02:06:44.697Z,927.57
2017-04-03T02:07:03.639Z,927.55
2017-04-03T02:07:23.658Z,927.56
2017-04-03T02:07:42.564Z,927.54
2017-04-03T02:08:02.572Z,927.53
2017-04-03T02:08:22.580Z,927.54
2017-04-03T02:08:42.046Z,927.54
2017-04-03T02:09:02.036Z,927.52
2017-04-03T02:09:22.038Z,927.52
2017-04-03T02:09:41.503Z,927.51
2017-04-03T02:10:00.953Z,927.53
2017-04-03T02:10:20.397Z,927.5
2017-04-03T02:10:39.858Z,927.51
2017-04-03T02:10:59.883Z,927.49
2017-04-03T02:11:19.909Z,927.51
2017-04-03T02:11:39.952Z,927.52
2017-04-03T02:11:59.992Z,927.48
2017-04-03T02:12:19.460Z,927.51
2017-04-03T02:12:37.813Z,927.51
2017-04-03T02:12:57.831Z,927.51
2017-04-03T02:13:18.046Z,927.51
2017-04-03T02:13:37.521Z,927.5
2017-04-03T02:13:57.537Z,927.5
2017-04-03T02:14:17.015Z,927.54
2017-04-03T02:14:37.029Z,927.52
2017-04-03T02:14:57.037Z,927.52
2017-04-03T02:15:16.484Z,927.52
2017-04-03T02:15:36.484Z,927.51
2017-04-03T02:15:55.964Z,927.5
2017-04-03T02:16:16.006Z,927.53
2017-04-03T02:16:34.899Z,927.5
2017-04-03T02:16:54.367Z,927.53
2017-04-03T02:17:13.863Z,927.54
2017-04-03T02:17:33.926Z,927.53
2017-04-03T02:17:53.919Z,927.55
2017-04-03T02:18:13.933Z,927.56
2017-04-03T02:18:33.942Z,927.52
2017-04-03T02:18:53.961Z,927.51
2017-04-03T02:19:13.990Z,927.5
2017-04-03T02:19:34.012Z,927.5
2017-04-03T02:19:54.017Z,927.53
2017-04-03T02:20:14.046Z,927.51
2017-04-03T02:20:33.485Z,927.5
2017-04-03T02:20:53.479Z,927.47
2017-04-03T02:21:13.520Z,927.49
2017-04-03T02:21:32.947Z,927.52
2017-04-03T02:21:52.978Z,927.52
2017-04-03T02:22:12.997Z,927.54
2017-04-03T02:22:33.019Z,927.53
2017-04-03T02:22:53.044Z,927.51
2017-04-03T02:23:12.485Z,927.52
2017-04-03T02:23:32.502Z,927.5
2017-04-03T02:23:51.961Z,927.49
2017-04-03T02:24:12.001Z,927.51
2017-04-03T02:24:31.459Z,927.5
2017-04-03T02:24:51.505Z,927.51
2017-04-03T02:25:11.505Z,927.48
2017-04-03T02:25:30.983Z,927.48
2017-04-03T02:25:51.000Z,927.49
2017-04-03T02:26:10.447Z,927.49
2017-04-03T02:26:30.465Z,927.48
2017-04-03T02:26:50.539Z,927.46
2017-04-03T02:27:10.548Z,927.51
2017-04-03T02:27:30.007Z,927.49
2017-04-03T02:27:50.036Z,927.48
2017-04-03T02:28:10.028Z,927.46
2017-04-03T02:28:28.929Z,927.49
2017-04-03T02:28:48.393Z,927.52
2017-04-03T02:29:08.389Z,927.48
2017-04-03T02:29:28.413Z,927.5
2017-04-03T02:29:48.463Z,927.5
2017-04-03T02:30:07.927Z,927.48
2017-04-03T02:30:27.959Z,927.48
2017-04-03T02:30:47.434Z,927.46
2017-04-03T02:31:07.682Z,927.48
2017-04-03T02:31:27.733Z,927.43
2017-04-03T02:31:47.201Z,927.45
2017-04-03T02:32:06.639Z,927.42
2017-04-03T02:32:26.083Z,927.44
2017-04-03T02:32:46.108Z,927.38
2017-04-03T02:33:06.106Z,927.46
2017-04-03T02:33:25.532Z,927.4
2017-04-03T02:33:45.525Z,927.41
2017-04-03T02:34:04.977Z,927.38
2017-04-03T02:34:24.418Z,927.38
2017-04-03T02:34:44.612Z,927.42
2017-04-03T02:35:03.547Z,927.41
2017-04-03T02:35:23.542Z,927.41
2017-04-03T02:35:43.548Z,927.41
2017-04-03T02:36:02.430Z,927.42
2017-04-03T02:36:22.465Z,927.43
2017-04-03T02:36:42.488Z,927.38
2017-04-03T02:37:01.372Z,927.4
2017-04-03T02:37:21.405Z,927.43
2017-04-03T02:37:41.445Z,927.37
2017-04-03T02:38:00.884Z,927.4
2017-04-03T02:38:20.905Z,927.37
2017-04-03T02:38:40.919Z,927.37
2017-04-03T02:39:00.953Z,927.43
2017-04-03T02:39:20.974Z,927.38
2017-04-03T02:39:40.397Z,927.37
2017-04-03T02:40:00.438Z,927.34
2017-04-03T02:40:20.495Z,927.36
2017-04-03T02:40:40.525Z,927.36
2017-04-03T02:41:01.680Z,927.39
2017-04-03T02:41:34.967Z,927.36
2017-04-03T02:41:54.403Z,927.39
2017-04-03T02:42:14.439Z,927.38
2017-04-03T02:42:34.453Z,927.36
2017-04-03T02:42:54.473Z,927.41
2017-04-03T02:43:13.897Z,927.39
2017-04-03T02:43:34.254Z,927.35
2017-04-03T02:43:54.282Z,927.34
2017-04-03T02:44:13.176Z,927.35
2017-04-03T02:44:33.216Z,927.35
2017-04-03T02:44:53.242Z,927.36
2017-04-03T02:45:13.263Z,927.33
2017-04-03T02:45:32.724Z,927.35
2017-04-03T02:45:52.750Z,927.35
2017-04-03T02:46:12.782Z,927.36
2017-04-03T02:46:32.783Z,927.38
2017-04-03T02:46:52.835Z,927.35
2017-04-03T02:47:12.851Z,927.31
2017-04-03T02:47:31.757Z,927.31
2017-04-03T02:47:51.780Z,927.31
2017-04-03T02:48:11.798Z,927.34
2017-04-03T02:48:31.254Z,927.32
2017-04-03T02:48:50.736Z,927.3
2017-04-03T02:49:10.755Z,927.35
2017-04-03T02:49:30.196Z,927.29
2017-04-03T02:49:50.184Z,927.28
2017-04-03T02:50:09.662Z,927.34
2017-04-03T02:50:29.133Z,927.32
2017-04-03T02:50:49.153Z,927.29
2017-04-03T02:51:09.171Z,927.27
2017-04-03T02:51:28.628Z,927.3
2017-04-03T02:51:48.639Z,927.29
2017-04-03T02:52:08.635Z,927.33
2017-04-03T02:52:28.104Z,927.27
2017-04-03T02:52:48.113Z,927.28
2017-04-03T02:53:08.160Z,927.3
2017-04-03T02:53:28.169Z,927.27
2017-04-03T02:53:47.653Z,927.32
2017-04-03T02:54:07.676Z,927.29
2017-04-03T02:54:27.152Z,927.29
2017-04-03T02:54:47.180Z,927.27
2017-04-03T02:55:07.199Z,927.26
2017-04-03T02:55:27.225Z,927.26
2017-04-03T02:55:47.237Z,927.28
2017-04-03T02:56:07.254Z,927.3
2017-04-03T02:56:27.259Z,927.29
2017-04-03T02:56:47.252Z,927.25
2017-04-03T02:57:06.724Z,927.29
2017-04-03T02:57:26.150Z,927.28
2017-04-03T02:57:46.185Z,927.31
2017-04-03T02:58:06.216Z,927.27
2017-04-03T02:58:25.733Z,927.27
2017-04-03T02:58:45.751Z,927.26
2017-04-03T02:59:05.222Z,927.28
2017-04-03T02:59:25.228Z,927.27
2017-04-03T02:59:44.722Z,927.27
2017-04-03T03:00:03.626Z,927.27
2017-04-03T03:00:23.087Z,927.3
2017-04-03T03:00:43.094Z,927.32
2017-04-03T03:01:03.134Z,927.29
2017-04-03T03:01:23.181Z,927.32
2017-04-03T03:01:43.401Z,927.32
2017-04-03T03:02:03.389Z,927.3
2017-04-03T03:02:22.298Z,927.28
2017-04-03T03:02:42.283Z,927.32
2017-04-03T03:03:02.327Z,927.33
2017-04-03T03:03:22.342Z,927.3
2017-04-03T03:03:42.407Z,927.3
2017-04-03T03:04:02.414Z,927.28
2017-04-03T03:04:21.864Z,927.31
2017-04-03T03:04:41.879Z,927.34
2017-04-03T03:05:01.371Z,927.26
2017-04-03T03:05:20.810Z,927.31
2017-04-03T03:05:40.859Z,927.3
2017-04-03T03:06:00.863Z,927.28
2017-04-03T03:06:20.933Z,927.29
2017-04-03T03:06:41.010Z,927.3
2017-04-03T03:07:01.042Z,927.31
2017-04-03T03:07:21.078Z,927.3
2017-04-03T03:07:41.087Z,927.32
2017-04-03T03:08:01.106Z,927.32
2017-04-03T03:08:20.575Z,927.28
2017-04-03T03:08:40.578Z,927.32
2017-04-03T03:09:00.053Z,927.27
2017-04-03T03:09:19.514Z,927.3
2017-04-03T03:09:38.947Z,927.33
2017-04-03T03:09:58.944Z,927.29
2017-04-03T03:10:17.815Z,927.3
2017-04-03T03:10:37.269Z,927.3
2017-04-03T03:10:57.339Z,927.28
2017-04-03T03:11:17.368Z,927.3
2017-04-03T03:11:36.267Z,927.25
2017-04-03T03:11:56.267Z,927.29
2017-04-03T03:12:16.314Z,927.28
2017-04-03T03:12:35.202Z,927.27
2017-04-03T03:12:55.256Z,927.29
2017-04-03T03:13:15.264Z,927.25
2017-04-03T03:13:34.725Z,927.24
2017-04-03T03:13:54.178Z,927.24
2017-04-03T03:14:13.618Z,927.25
2017-04-03T03:14:33.618Z,927.28
2017-04-03T03:14:53.624Z,927.28
2017-04-03T03:15:13.653Z,927.26
2017-04-03T03:15:33.703Z,927.28
2017-04-03T03:15:53.952Z,927.27
2017-04-03T03:16:13.981Z,927.32
2017-04-03T03:16:33.992Z,927.28
2017-04-03T03:16:53.456Z,927.29
2017-04-03T03:17:13.485Z,927.29
2017-04-03T03:17:33.494Z,927.28
2017-04-03T03:17:53.521Z,927.3
2017-04-03T03:18:13.525Z,927.26
2017-04-03T03:18:33.521Z,927.29
2017-04-03T03:18:53.542Z,927.25
2017-04-03T03:19:13.557Z,927.27
2017-04-03T03:19:33.594Z,927.22
2017-04-03T03:19:53.647Z,927.18
2017-04-03T03:20:13.099Z,927.22
2017-04-03T03:20:32.057Z,927.23
2017-04-03T03:20:52.075Z,927.22
2017-04-03T03:21:12.107Z,927.23
2017-04-03T03:21:32.139Z,927.23
2017-04-03T03:21:51.589Z,927.24
2017-04-03T03:22:11.607Z,927.19
2017-04-03T03:22:31.100Z,927.2
2017-04-03T03:22:50.567Z,927.23
2017-04-03T03:23:10.570Z,927.2
2017-04-03T03:23:30.020Z,927.23
2017-04-03T03:23:50.029Z,927.18
2017-04-03T03:24:08.910Z,927.18
2017-04-03T03:24:28.375Z,927.22
2017-04-03T03:25:07.523Z,927.2
2017-04-03T03:25:26.912Z,927.21
2017-04-03T03:25:45.760Z,927.18
2017-04-03T03:26:05.329Z,927.18
2017-04-03T03:26:24.146Z,927.21
2017-04-03T03:26:43.522Z,927.18
2017-04-03T03:27:02.828Z,927.2
2017-04-03T03:27:22.178Z,927.19
2017-04-03T03:27:41.528Z,927.23
2017-04-03T03:28:00.882Z,927.22
2017-04-03T03:28:20.244Z,927.26
2017-04-03T03:28:39.580Z,927.24
2017-04-03T03:28:58.927Z,927.24
2017-04-03T03:29:18.261Z,927.23
2017-04-03T03:29:37.649Z,927.22
2017-04-03T03:29:56.521Z,927.21
2017-04-03T03:30:15.885Z,927.22
2017-04-03T03:30:34.187Z,927.23
2017-04-03T03:30:53.205Z,927.24
2017-04-03T03:31:12.524Z,927.22
2017-04-03T03:31:31.838Z,927.25
2017-04-03T03:31:51.187Z,927.29
2017-04-03T03:32:10.545Z,927.3
2017-04-03T03:32:29.887Z,927.31
2017-04-03T03:32:49.238Z,927.27
2017-04-03T03:33:08.644Z,927.29
2017-04-03T03:33:28.306Z,927.28
2017-04-03T03:33:47.635Z,927.29
2017-04-03T03:34:06.973Z,927.29
2017-04-03T03:34:25.795Z,927.32
2017-04-03T03:34:45.113Z,927.28
2017-04-03T03:35:04.453Z,927.26
2017-04-03T03:35:23.237Z,927.28
2017-04-03T03:35:42.034Z,927.25
2017-04-03T03:36:01.332Z,927.27
2017-04-03T03:36:20.182Z,927.31
2017-04-03T03:36:39.508Z,927.27
2017-04-03T03:36:58.833Z,927.29
2017-04-03T03:37:18.170Z,927.28
2017-04-03T03:37:37.506Z,927.24
2017-04-03T03:37:56.812Z,927.28
2017-04-03T03:38:15.621Z,927.28
2017-04-03T03:38:34.955Z,927.29
2017-04-03T03:38:54.238Z,927.27
2017-04-03T03:39:13.563Z,927.26
2017-04-03T03:39:32.859Z,927.21
2017-04-03T03:39:52.219Z,927.2
2017-04-03T03:40:11.546Z,927.24
2017-04-03T03:40:30.357Z,927.19
2017-04-03T03:40:49.684Z,927.21
2017-04-03T03:41:09.033Z,927.24
2017-04-03T03:41:28.362Z,927.23
2017-04-03T03:41:47.697Z,927.21
2017-04-03T03:42:07.030Z,927.2
2017-04-03T03:42:25.845Z,927.19
2017-04-03T03:42:45.203Z,927.18
2017-04-03T03:43:04.536Z,927.19
2017-04-03T03:43:23.880Z,927.2
2017-04-03T03:43:42.690Z,927.17
2017-04-03T03:44:02.022Z,927.18
2017-04-03T03:44:20.306Z,927.2
2017-04-03T03:44:39.609Z,927.18
2017-04-03T03:44:58.920Z,927.21
2017-04-03T03:45:18.333Z,927.2
2017-04-03T03:45:37.158Z,927.24
2017-04-03T03:45:56.497Z,927.23
2017-04-03T03:46:15.844Z,927.23
2017-04-03T03:46:35.191Z,927.21
2017-04-03T03:46:54.528Z,927.25
2017-04-03T03:47:13.347Z,927.24
2017-04-03T03:47:32.693Z,927.24
2017-04-03T03:47:51.541Z,927.25
2017-04-03T03:48:10.377Z,927.23
2017-04-03T03:48:28.668Z,927.24
2017-04-03T03:48:47.461Z,927.23
2017-04-03T03:49:06.771Z,927.26
2017-04-03T03:49:25.560Z,927.24
2017-04-03T03:49:44.871Z,927.23
2017-04-03T03:50:03.673Z,927.23
2017-04-03T03:50:22.455Z,927.27
2017-04-03T03:50:41.267Z,927.29
2017-04-03T03:51:00.080Z,927.26
2017-04-03T03:51:19.398Z,927.25
2017-04-03T03:51:38.202Z,927.24
2017-04-03T03:51:57.050Z,927.24
2017-04-03T03:52:16.404Z,927.23
2017-04-03T03:52:35.796Z,927.22
2017-04-03T03:52:55.133Z,927.24
2017-04-03T03:53:14.493Z,927.26
2017-04-03T03:53:33.805Z,927.21
2017-04-03T03:53:53.152Z,927.19
2017-04-03T03:54:12.470Z,927.22
2017-04-03T03:54:31.801Z,927.24
2017-04-03T03:54:51.163Z,927.21
2017-04-03T03:55:09.950Z,927.25
2017-04-03T03:55:29.274Z,927.2
2017-04-03T03:55:48.472Z,927.2
2017-04-03T03:56:07.779Z,927.2
2017-04-03T03:56:26.561Z,927.18
2017-04-03T03:56:45.903Z,927.19
2017-04-03T03:57:05.251Z,927.18
2017-04-03T03:57:24.588Z,927.16
2017-04-03T03:57:43.900Z,927.18
2017-04-03T03:58:03.220Z,927.15
2017-04-03T03:58:22.531Z,927.19
2017-04-03T03:58:41.380Z,927.2
2017-04-03T03:59:00.713Z,927.19
2017-04-03T03:59:20.048Z,927.16
2017-04-03T03:59:38.862Z,927.18
2017-04-03T03:59:57.701Z,927.19
2017-04-03T04:00:17.027Z,927.16
2017-04-03T04:00:36.339Z,927.16
2017-04-03T04:00:58.023Z,927.15
2017-04-03T04:01:17.357Z,927.14
2017-04-03T04:01:36.687Z,927.17
2017-04-03T04:01:56.028Z,927.14
2017-04-03T04:02:14.841Z,927.15
2017-04-03T04:02:34.165Z,927.19
2017-04-03T04:02:53.487Z,927.14
2017-04-03T04:03:12.833Z,927.14
2017-04-03T04:03:31.634Z,927.09
2017-04-03T04:03:50.989Z,927.09
2017-04-03T04:04:10.306Z,927.08
2017-04-03T04:04:28.589Z,927.08
2017-04-03T04:04:47.916Z,927.08
2017-04-03T04:05:07.286Z,927.11
2017-04-03T04:05:26.096Z,927.09
2017-04-03T04:05:45.461Z,927.07
2017-04-03T04:06:04.798Z,927.11
2017-04-03T04:06:24.141Z,927.07
2017-04-03T04:06:43.463Z,927.1
2017-04-03T04:07:02.821Z,927.07
2017-04-03T04:07:22.134Z,927.04